createdAt,value
2022-07-28T00:02:25.872Z,2.10
2022-07-28T00:04:52.577Z,1.77
2022-07-28T00:07:22.529Z,1.92
2022-07-28T00:09:49.160Z,2.33
2022-07-28T00:12:16.353Z,2.17
2022-07-28T00:14:43.417Z,2.10
2022-07-28T00:17:10.680Z,1.98
2022-07-28T00:19:37.350Z,1.75
2022-07-28T00:22:04.033Z,2.30
2022-07-28T00:24:31.856Z,2.00
2022-07-28T00:26:58.517Z,1.95
2022-07-28T00:29:25.243Z,1.92
2022-07-28T00:32:11.841Z,2.00
2022-07-28T00:34:38.533Z,2.05
2022-07-28T00:37:07.312Z,2.05
2022-07-28T00:39:40.163Z,1.75
2022-07-28T00:42:06.933Z,1.83
2022-07-28T00:44:33.574Z,1.92
2022-07-28T00:47:00.263Z,2.20
2022-07-28T00:49:27.083Z,2.30
2022-07-28T00:51:54.190Z,2.00
2022-07-28T00:54:21.044Z,2.15
2022-07-28T00:56:47.627Z,2.15
2022-07-28T00:59:14.234Z,1.83
2022-07-28T01:01:41.207Z,2.05
2022-07-28T01:04:08.113Z,1.95
2022-07-28T01:06:34.659Z,1.90
2022-07-28T01:09:34.265Z,2.00
2022-07-28T01:12:11.013Z,1.98
2022-07-28T01:14:48.826Z,1.75
2022-07-28T01:17:37.238Z,1.90
2022-07-28T01:20:05.783Z,2.67
2022-07-28T01:22:39.937Z,2.03
2022-07-28T01:25:34.138Z,1.98
2022-07-28T01:28:21.264Z,1.90
2022-07-28T01:30:53.536Z,1.90
2022-07-28T01:33:41.406Z,2.10
2022-07-28T01:36:38.824Z,2.10
2022-07-28T01:39:05.741Z,2.03
2022-07-28T01:41:34.666Z,1.90
2022-07-28T01:44:06.026Z,1.90
2022-07-28T01:46:34.163Z,1.90
2022-07-28T01:49:02.470Z,2.03
2022-07-28T01:51:31.157Z,1.88
2022-07-28T01:54:00.282Z,1.92
2022-07-28T01:56:30.950Z,2.10
2022-07-28T01:59:03.085Z,1.65
2022-07-28T02:01:35.284Z,2.08
2022-07-28T02:04:04.656Z,2.13
2022-07-28T02:06:34.293Z,2.00
2022-07-28T02:09:03.721Z,2.00
2022-07-28T02:11:41.384Z,1.92
2022-07-28T02:14:11.712Z,1.90
2022-07-28T02:16:41.761Z,2.00
2022-07-28T02:19:09.864Z,1.58
2022-07-28T02:21:38.118Z,1.70
2022-07-28T02:24:07.654Z,1.85
2022-07-28T02:26:41.457Z,2.22
2022-07-28T02:29:33.387Z,1.80
2022-07-28T02:34:56.336Z,2.38
2022-07-28T02:37:23.489Z,2.03
2022-07-28T02:40:00.045Z,2.10
2022-07-28T02:42:30.782Z,1.90
2022-07-28T02:44:59.979Z,2.23
2022-07-28T02:47:30.855Z,1.60
2022-07-28T02:50:01.858Z,1.95
2022-07-28T02:52:29.558Z,2.00
2022-07-28T02:54:58.855Z,1.80
2022-07-28T02:57:27.167Z,1.52
2022-07-28T02:59:55.151Z,1.70
2022-07-28T03:02:22.888Z,1.52
2022-07-28T03:04:59.414Z,1.60
2022-07-28T03:07:31.063Z,2.08
2022-07-28T03:09:58.998Z,1.70
2022-07-28T03:12:26.945Z,1.73
2022-07-28T03:14:54.172Z,1.77
2022-07-28T03:17:20.878Z,1.60
2022-07-28T03:19:47.476Z,1.90
2022-07-28T03:22:14.329Z,2.50
2022-07-28T03:24:46.977Z,2.75
2022-07-28T03:27:21.630Z,1.95
2022-07-28T03:29:54.289Z,2.03
2022-07-28T03:32:23.913Z,1.90
2022-07-28T03:34:52.423Z,2.13
2022-07-28T03:37:27.513Z,1.52
2022-07-28T03:39:58.005Z,2.25
2022-07-28T03:42:27.137Z,1.77
2022-07-28T03:44:54.138Z,2.17
2022-07-28T03:47:22.997Z,1.92
2022-07-28T03:49:50.190Z,1.90
2022-07-28T03:52:19.065Z,2.20
2022-07-28T03:54:45.989Z,1.92
2022-07-28T03:57:13.917Z,2.05
2022-07-28T03:59:40.558Z,1.98
2022-07-28T04:02:07.179Z,2.47
2022-07-28T04:04:34.295Z,1.52
2022-07-28T04:07:01.188Z,2.17
2022-07-28T04:09:27.794Z,2.08
2022-07-28T04:11:54.470Z,1.90
2022-07-28T04:14:21.449Z,1.70
2022-07-28T04:16:48.487Z,2.05
2022-07-28T04:19:15.184Z,1.88
2022-07-28T04:21:42.498Z,2.10
2022-07-28T04:24:10.967Z,1.80
2022-07-28T04:26:38.058Z,2.22
2022-07-28T04:29:04.886Z,3.47
2022-07-28T04:31:31.499Z,2.00
2022-07-28T04:33:58.183Z,2.92
2022-07-28T04:36:25.969Z,3.28
2022-07-28T04:38:52.652Z,2.22
2022-07-28T04:41:19.265Z,2.78
2022-07-28T04:43:45.882Z,3.08
2022-07-28T04:46:15.114Z,2.92
2022-07-28T04:48:42.100Z,2.60
2022-07-28T04:51:08.912Z,2.30
2022-07-28T04:53:35.628Z,2.10
2022-07-28T04:56:02.992Z,2.20
2022-07-28T04:58:30.927Z,2.47
2022-07-28T05:00:57.777Z,2.92
2022-07-28T05:03:24.410Z,2.05
2022-07-28T05:05:54.677Z,2.20
2022-07-28T05:08:26.207Z,2.13
2022-07-28T05:10:54.536Z,2.50
2022-07-28T05:13:21.129Z,2.25
2022-07-28T05:15:47.720Z,2.40
2022-07-28T05:18:14.370Z,2.35
2022-07-28T05:20:40.945Z,1.90
2022-07-28T05:23:08.508Z,2.10
2022-07-28T05:25:35.305Z,2.03
2022-07-28T05:28:01.894Z,2.22
2022-07-28T05:30:29.468Z,1.90
2022-07-28T05:32:59.315Z,1.88
2022-07-28T05:35:26.304Z,2.05
2022-07-28T05:37:52.914Z,1.95
2022-07-28T05:40:19.658Z,2.00
2022-07-28T05:42:47.850Z,2.00
2022-07-28T05:45:17.435Z,2.20
2022-07-28T05:47:49.619Z,2.10
2022-07-28T05:50:17.646Z,2.40
2022-07-28T05:52:45.985Z,2.65
2022-07-28T05:55:13.404Z,2.15
2022-07-28T05:57:40.506Z,2.67
2022-07-28T06:00:13.689Z,2.13
2022-07-28T06:02:42.400Z,1.88
2022-07-28T06:05:09.542Z,1.80
2022-07-28T06:07:42.891Z,2.25
2022-07-28T06:10:15.629Z,1.60
2022-07-28T06:12:51.597Z,1.55
2022-07-28T06:15:23.510Z,1.83
2022-07-28T06:17:52.667Z,2.17
2022-07-28T06:20:21.211Z,2.17
2022-07-28T06:22:52.883Z,2.65
2022-07-28T06:25:28.147Z,2.15
2022-07-28T06:27:57.033Z,1.98
2022-07-28T06:30:24.428Z,1.70
2022-07-28T06:32:51.563Z,2.05
2022-07-28T06:35:18.686Z,1.75
2022-07-28T06:37:50.100Z,2.30
2022-07-28T06:40:18.034Z,2.95
2022-07-28T06:42:46.268Z,1.77
2022-07-28T06:45:19.536Z,2.33
2022-07-28T06:47:49.227Z,1.90
2022-07-28T06:50:25.673Z,1.67
2022-07-28T06:52:59.173Z,2.20
2022-07-28T06:55:28.496Z,2.17
2022-07-28T06:58:01.888Z,1.77
2022-07-28T07:00:28.552Z,2.20
2022-07-28T07:02:55.194Z,1.80
2022-07-28T07:05:21.874Z,1.75
2022-07-28T07:07:48.473Z,2.40
2022-07-28T07:10:15.142Z,2.20
2022-07-28T07:12:41.851Z,2.42
2022-07-28T07:15:09.165Z,2.88
2022-07-28T07:17:37.675Z,2.42
2022-07-28T07:20:06.917Z,2.00
2022-07-28T07:22:33.617Z,2.10
2022-07-28T07:25:11.674Z,2.03
2022-07-28T07:27:38.367Z,1.95
2022-07-28T07:30:07.040Z,2.10
2022-07-28T07:32:33.801Z,2.38
2022-07-28T07:35:00.405Z,2.30
2022-07-28T07:37:27.023Z,2.53
2022-07-28T07:39:53.637Z,2.42
2022-07-28T07:42:20.271Z,2.50
2022-07-28T07:44:51.473Z,2.35
2022-07-28T07:47:18.921Z,2.42
2022-07-28T07:49:46.581Z,2.85
2022-07-28T07:52:14.206Z,2.60
2022-07-28T07:54:41.488Z,2.20
2022-07-28T07:57:08.119Z,2.50
2022-07-28T07:59:34.802Z,2.33
2022-07-28T08:02:01.613Z,4.90
2022-07-28T08:04:28.755Z,3.20
2022-07-28T08:06:56.506Z,2.72
2022-07-28T08:09:23.542Z,3.13
2022-07-28T08:11:50.251Z,2.40
2022-07-28T08:14:17.461Z,2.63
2022-07-28T08:16:44.429Z,2.97
2022-07-28T08:19:11.154Z,2.67
2022-07-28T08:21:38.706Z,2.40
2022-07-28T08:24:05.684Z,2.17
2022-07-28T08:26:32.422Z,2.60
2022-07-28T08:28:59.036Z,3.33
2022-07-28T08:31:26.508Z,2.72
2022-07-28T08:33:54.764Z,2.38
2022-07-28T08:36:22.035Z,2.90
2022-07-28T08:38:48.649Z,2.70
2022-07-28T08:41:33.512Z,3.00
2022-07-28T08:44:04.025Z,2.70
2022-07-28T08:46:36.970Z,3.00
2022-07-28T08:49:09.489Z,2.63
2022-07-28T08:51:38.550Z,3.28
2022-07-28T08:54:06.645Z,3.22
2022-07-28T08:56:34.821Z,2.88
2022-07-28T08:59:03.013Z,2.65
2022-07-28T09:01:38.769Z,2.70
2022-07-28T09:04:08.839Z,2.80
2022-07-28T09:06:37.723Z,3.38
2022-07-28T09:09:04.304Z,2.95
2022-07-28T09:11:30.929Z,3.28
2022-07-28T09:13:57.548Z,3.63
2022-07-28T09:16:24.211Z,3.00
2022-07-28T09:18:50.895Z,3.70
2022-07-28T09:21:17.851Z,3.03
2022-07-28T09:23:46.231Z,3.00
2022-07-28T09:26:13.415Z,3.05
2022-07-28T09:28:59.165Z,3.10
2022-07-28T09:31:27.600Z,3.10
2022-07-28T09:34:02.685Z,3.40
2022-07-28T09:36:31.258Z,3.08
2022-07-28T09:38:59.275Z,4.00
2022-07-28T09:41:25.939Z,3.90
2022-07-28T09:43:55.212Z,3.72
2022-07-28T09:46:25.699Z,3.13
2022-07-28T09:49:01.311Z,2.92
2022-07-28T09:51:31.010Z,3.90
2022-07-28T09:54:14.630Z,3.25
2022-07-28T09:56:44.221Z,4.05
2022-07-28T09:59:12.787Z,3.95
2022-07-28T10:01:56.849Z,4.38
2022-07-28T10:04:39.095Z,6.15
2022-07-28T10:07:09.996Z,4.13
2022-07-28T10:09:38.183Z,4.63
2022-07-28T10:12:23.028Z,5.25
2022-07-28T10:14:51.987Z,4.80
2022-07-28T10:17:44.997Z,5.10
2022-07-28T10:20:11.939Z,4.88
2022-07-28T10:22:43.385Z,4.00
2022-07-28T10:27:42.129Z,4.40
2022-07-28T10:30:09.892Z,4.97
2022-07-28T10:32:43.228Z,4.28
2022-07-28T10:35:15.381Z,4.53
2022-07-28T10:38:00.177Z,5.03
2022-07-28T10:40:29.965Z,4.63
2022-07-28T10:42:57.352Z,4.47
2022-07-28T10:45:32.604Z,4.18
2022-07-28T10:48:08.919Z,4.40
2022-07-28T10:50:39.081Z,4.43
2022-07-28T10:53:07.880Z,4.15
2022-07-28T10:55:56.284Z,4.55
2022-07-28T10:58:45.045Z,4.43
2022-07-28T11:01:51.855Z,4.23
2022-07-28T11:04:47.980Z,4.20
2022-07-28T11:07:17.171Z,4.18
2022-07-28T11:09:45.637Z,4.43
2022-07-28T11:12:15.307Z,3.88
2022-07-28T11:14:43.466Z,7.32
2022-07-28T11:17:11.254Z,4.47
2022-07-28T11:22:44.945Z,4.07
2022-07-28T11:25:18.928Z,4.50
2022-07-28T11:27:51.506Z,4.53
2022-07-28T11:30:36.646Z,4.85
2022-07-28T11:33:05.084Z,4.57
2022-07-28T11:35:47.442Z,4.53
2022-07-28T11:38:15.150Z,4.25
2022-07-28T11:40:45.629Z,4.82
2022-07-28T11:43:22.378Z,4.50
2022-07-28T11:46:11.453Z,4.18
2022-07-28T11:48:40.606Z,4.88
2022-07-28T11:51:07.301Z,4.70
2022-07-28T11:53:44.261Z,4.40
2022-07-28T11:56:12.867Z,4.00
2022-07-28T11:58:40.817Z,4.30
2022-07-28T12:01:17.984Z,4.78
2022-07-28T12:03:55.613Z,4.55
2022-07-28T12:06:28.405Z,4.50
2022-07-28T12:09:02.021Z,4.80
2022-07-28T12:11:34.506Z,5.50
2022-07-28T12:14:15.534Z,4.68
2022-07-28T12:16:45.626Z,4.45
2022-07-28T12:19:16.129Z,4.75
2022-07-28T12:24:45.946Z,4.85
2022-07-28T12:27:15.106Z,5.00
2022-07-28T12:29:42.410Z,4.28
2022-07-28T12:32:10.161Z,4.85
2022-07-28T12:34:39.809Z,4.55
2022-07-28T12:37:11.189Z,4.75
2022-07-28T12:39:42.631Z,4.15
2022-07-28T12:42:11.796Z,4.85
2022-07-28T12:44:40.623Z,4.22
2022-07-28T12:47:10.803Z,4.72
2022-07-28T12:49:39.333Z,5.22
2022-07-28T12:52:23.269Z,4.63
2022-07-28T12:54:54.792Z,5.50
2022-07-28T12:57:50.943Z,5.07
2022-07-28T13:00:21.026Z,4.75
2022-07-28T13:02:49.608Z,4.93
2022-07-28T13:05:35.094Z,4.40
2022-07-28T13:08:04.836Z,4.35
2022-07-28T13:10:31.862Z,5.80
2022-07-28T13:13:07.129Z,4.88
2022-07-28T13:15:33.732Z,4.43
2022-07-28T13:18:00.469Z,5.15
2022-07-28T13:20:27.384Z,4.88
2022-07-28T13:22:54.895Z,5.18
2022-07-28T13:25:21.919Z,5.43
2022-07-28T13:27:54.241Z,4.80
2022-07-28T13:30:22.537Z,5.18
2022-07-28T13:32:49.485Z,5.10
2022-07-28T13:35:18.166Z,5.03
2022-07-28T13:37:45.577Z,5.03
2022-07-28T13:40:13.644Z,5.32
2022-07-28T13:42:40.225Z,5.07
2022-07-28T13:45:22.136Z,4.77
2022-07-28T13:47:52.006Z,5.40
2022-07-28T13:50:19.634Z,4.78
2022-07-28T13:52:46.740Z,5.20
2022-07-28T13:55:17.790Z,5.20
2022-07-28T13:57:46.642Z,6.35
2022-07-28T14:00:18.073Z,4.78
2022-07-28T14:02:48.715Z,4.90
2022-07-28T14:05:15.874Z,4.53
2022-07-28T14:07:42.527Z,4.97
2022-07-28T14:10:15.853Z,4.97
2022-07-28T14:12:42.540Z,5.10
2022-07-28T14:15:12.736Z,6.22
2022-07-28T14:17:45.259Z,5.38
2022-07-28T14:20:14.776Z,4.70
2022-07-28T14:22:42.618Z,5.03
2022-07-28T14:25:09.747Z,4.60
2022-07-28T14:27:36.564Z,4.90
2022-07-28T14:30:04.774Z,4.60
2022-07-28T14:32:32.212Z,4.72
2022-07-28T14:34:59.361Z,5.00
2022-07-28T14:37:26.196Z,4.90
2022-07-28T14:39:53.408Z,5.63
2022-07-28T14:42:20.046Z,4.22
2022-07-28T14:44:46.705Z,4.47
2022-07-28T14:47:13.492Z,5.07
2022-07-28T14:49:58.062Z,4.78
2022-07-28T14:52:26.723Z,4.97
2022-07-28T14:54:54.431Z,4.50
2022-07-28T14:57:21.314Z,5.20
2022-07-28T15:00:10.746Z,4.45
2022-07-28T15:02:37.503Z,5.00
2022-07-28T15:05:04.935Z,4.70
2022-07-28T15:07:31.728Z,4.78
2022-07-28T15:09:58.630Z,4.78
2022-07-28T15:12:25.520Z,4.90
2022-07-28T15:14:52.285Z,4.90
2022-07-28T15:17:19.689Z,5.38
2022-07-28T15:19:47.310Z,6.35
2022-07-28T15:22:14.058Z,4.45
2022-07-28T15:24:42.146Z,5.90
2022-07-28T15:27:12.346Z,4.88
2022-07-28T15:29:39.071Z,4.45
2022-07-28T15:32:06.458Z,4.20
2022-07-28T15:34:37.213Z,4.43
2022-07-28T15:37:03.870Z,4.13
2022-07-28T15:39:31.032Z,4.97
2022-07-28T15:41:59.105Z,4.50
2022-07-28T15:44:26.567Z,4.70
2022-07-28T15:46:53.320Z,4.10
2022-07-28T15:49:20.154Z,4.57
2022-07-28T15:51:46.970Z,4.47
2022-07-28T15:54:14.294Z,4.50
2022-07-28T15:56:42.078Z,4.50
2022-07-28T15:59:09.098Z,4.88
2022-07-28T16:01:35.774Z,5.47
2022-07-28T16:04:02.481Z,4.72
2022-07-28T16:06:50.465Z,4.50
2022-07-28T16:09:17.324Z,4.57
2022-07-28T16:11:44.247Z,4.35
2022-07-28T16:14:11.685Z,5.03
2022-07-28T16:16:38.685Z,4.85
2022-07-28T16:19:15.918Z,5.15
2022-07-28T16:21:54.305Z,4.28
2022-07-28T16:24:21.307Z,4.82
2022-07-28T16:26:47.926Z,4.93
2022-07-28T16:29:14.713Z,4.47
2022-07-28T16:31:45.184Z,4.80
2022-07-28T16:36:42.769Z,4.25
2022-07-28T16:39:09.525Z,4.85
2022-07-28T16:41:47.041Z,4.45
2022-07-28T16:44:16.167Z,4.82
2022-07-28T16:46:43.165Z,4.60
2022-07-28T16:49:09.878Z,4.07
2022-07-28T16:51:36.552Z,4.32
2022-07-28T16:54:03.224Z,3.67
2022-07-28T16:56:29.916Z,3.88
2022-07-28T16:59:00.532Z,4.22
2022-07-28T17:03:54.145Z,4.15
2022-07-28T17:06:20.816Z,3.90
2022-07-28T17:08:47.552Z,4.10
2022-07-28T17:11:14.118Z,4.47
2022-07-28T17:13:45.073Z,3.78
2022-07-28T17:16:12.357Z,4.03
2022-07-28T17:18:39.298Z,3.80
2022-07-28T17:21:06.211Z,4.00
2022-07-28T17:23:32.941Z,3.90
2022-07-28T17:27:04.962Z,3.67
2022-07-28T17:28:51.732Z,3.80
2022-07-28T17:31:18.435Z,5.57
2022-07-28T17:33:45.068Z,4.63
2022-07-28T17:36:11.732Z,6.32
2022-07-28T17:38:38.389Z,5.28
2022-07-28T17:41:05.052Z,3.97
2022-07-28T17:43:32.355Z,4.43
2022-07-28T17:45:59.066Z,4.70
2022-07-28T17:48:28.474Z,3.92
2022-07-28T17:50:55.089Z,4.15
2022-07-28T17:53:23.523Z,4.72
2022-07-28T17:56:00.413Z,4.22
2022-07-28T17:58:29.576Z,4.60
2022-07-28T18:01:10.684Z,3.78
2022-07-28T18:03:59.797Z,4.28
2022-07-28T18:06:33.940Z,3.97
2022-07-28T18:09:05.326Z,4.43
2022-07-28T18:11:55.984Z,4.30
2022-07-28T18:14:25.460Z,4.65
2022-07-28T18:16:52.140Z,4.45
2022-07-28T18:19:19.381Z,4.35
2022-07-28T18:21:46.066Z,4.15
2022-07-28T18:24:13.101Z,4.65
2022-07-28T18:26:40.266Z,4.35
2022-07-28T18:29:07.009Z,4.30
2022-07-28T18:31:33.642Z,4.18
2022-07-28T18:34:00.294Z,4.25
2022-07-28T18:36:26.904Z,4.90
2022-07-28T18:38:53.587Z,4.07
2022-07-28T18:41:20.282Z,4.10
2022-07-28T18:43:46.885Z,4.22
2022-07-28T18:46:13.889Z,4.75
2022-07-28T18:48:40.614Z,4.45
2022-07-28T18:51:07.275Z,4.18
2022-07-28T18:53:33.974Z,4.13
2022-07-28T18:56:00.572Z,4.05
2022-07-28T18:58:27.206Z,3.90
2022-07-28T19:00:54.689Z,3.92
2022-07-28T19:03:21.350Z,4.40
2022-07-28T19:05:48.142Z,4.45
2022-07-28T19:08:15.272Z,4.15
2022-07-28T19:10:43.759Z,4.28
2022-07-28T19:13:12.949Z,4.20
2022-07-28T19:15:40.722Z,3.70
2022-07-28T19:18:11.041Z,4.32
2022-07-28T19:20:44.049Z,4.00
2022-07-28T19:23:10.670Z,4.00
2022-07-28T19:25:38.917Z,3.88
2022-07-28T19:28:05.967Z,4.20
2022-07-28T19:30:32.613Z,4.18
2022-07-28T19:32:59.641Z,3.67
2022-07-28T19:35:26.423Z,3.90
2022-07-28T19:37:53.343Z,4.18
2022-07-28T19:40:20.095Z,4.20
2022-07-28T19:42:48.486Z,3.92
2022-07-28T19:45:15.310Z,4.88
2022-07-28T19:47:42.608Z,4.15
2022-07-28T19:50:09.404Z,3.80
2022-07-28T19:52:37.513Z,4.32
2022-07-28T19:55:05.344Z,4.30
2022-07-28T19:57:32.893Z,4.50
2022-07-28T19:59:59.801Z,4.70
2022-07-28T20:02:26.478Z,4.93
2022-07-28T20:04:53.266Z,5.60
2022-07-28T20:07:19.961Z,5.35
2022-07-28T20:09:46.610Z,4.55
2022-07-28T20:12:13.291Z,4.88
2022-07-28T20:14:39.943Z,4.53
2022-07-28T20:17:06.590Z,4.50
2022-07-28T20:19:33.763Z,4.50
2022-07-28T20:22:00.395Z,4.45
2022-07-28T20:24:27.024Z,4.70
2022-07-28T20:26:53.769Z,4.60
2022-07-28T20:29:20.433Z,4.28
2022-07-28T20:31:47.058Z,4.07
2022-07-28T20:34:15.186Z,4.97
2022-07-28T20:36:42.413Z,4.57
2022-07-28T20:39:34.516Z,4.65
2022-07-28T20:41:55.670Z,4.68
2022-07-28T20:44:30.514Z,4.80
2022-07-28T20:47:02.301Z,4.68
2022-07-28T20:49:29.825Z,5.10
2022-07-28T20:51:58.000Z,5.15
2022-07-28T20:54:25.672Z,4.90
2022-07-28T20:56:52.557Z,5.07
2022-07-28T20:59:19.230Z,6.13
2022-07-28T21:01:45.900Z,5.05
2022-07-28T21:04:13.276Z,5.20
2022-07-28T21:06:51.265Z,5.90
2022-07-28T21:09:19.647Z,5.18
2022-07-28T21:11:46.213Z,6.05
2022-07-28T21:14:13.117Z,4.75
2022-07-28T21:16:40.178Z,5.00
2022-07-28T21:19:06.905Z,4.85
2022-07-28T21:21:33.490Z,4.68
2022-07-28T21:24:00.111Z,4.53
2022-07-28T21:26:26.683Z,4.22
2022-07-28T21:29:12.555Z,4.82
2022-07-28T21:32:03.890Z,4.80
2022-07-28T21:34:28.320Z,4.63
2022-07-28T21:36:55.007Z,4.75
2022-07-28T21:39:21.596Z,4.90
2022-07-28T21:41:48.266Z,4.55
2022-07-28T21:44:15.209Z,4.85
2022-07-28T21:46:45.657Z,4.93
2022-07-28T21:49:12.429Z,5.47
2022-07-28T21:51:39.122Z,5.80
2022-07-28T21:54:05.901Z,5.53
2022-07-28T21:56:34.552Z,6.03
2022-07-28T21:59:02.077Z,5.68
2022-07-28T22:01:28.829Z,5.28
2022-07-28T22:03:56.078Z,5.53
2022-07-28T22:06:23.120Z,5.38
2022-07-28T22:08:53.786Z,5.15
2022-07-28T22:13:47.806Z,4.95
2022-07-28T22:16:14.696Z,5.03
2022-07-28T22:18:41.515Z,4.53
2022-07-28T22:21:08.127Z,4.95
2022-07-28T22:23:34.754Z,5.00
2022-07-28T22:26:01.371Z,4.93
2022-07-28T22:28:29.493Z,4.95
2022-07-28T22:30:56.767Z,4.60
2022-07-28T22:33:23.373Z,4.93
2022-07-28T22:35:51.315Z,4.25
2022-07-28T22:38:18.100Z,4.35
2022-07-28T22:40:44.913Z,4.93
2022-07-28T22:43:11.890Z,5.60
2022-07-28T22:45:50.846Z,4.60
2022-07-28T22:48:18.571Z,4.43
2022-07-28T22:50:45.292Z,4.85
2022-07-28T22:53:11.888Z,4.88
2022-07-28T22:55:39.805Z,4.57
2022-07-28T22:58:06.414Z,4.05
2022-07-28T23:00:33.758Z,4.82
2022-07-28T23:03:03.975Z,4.35
2022-07-28T23:05:33.678Z,4.38
2022-07-28T23:08:00.261Z,4.22
2022-07-28T23:10:29.074Z,4.85
2022-07-28T23:12:58.694Z,4.67
2022-07-28T23:15:40.638Z,4.45
2022-07-28T23:18:11.431Z,4.05
2022-07-28T23:20:39.292Z,5.30
2022-07-28T23:23:06.671Z,5.05
2022-07-28T23:25:36.040Z,5.63
2022-07-28T23:28:03.398Z,5.15
2022-07-28T23:30:30.016Z,6.25
2022-07-28T23:32:56.723Z,4.40
2022-07-28T23:35:23.753Z,5.32
2022-07-28T23:37:50.406Z,6.07
2022-07-28T23:40:17.105Z,6.20
2022-07-28T23:42:43.678Z,5.50
2022-07-28T23:45:10.709Z,5.28
2022-07-28T23:47:37.372Z,5.95
2022-07-28T23:50:04.975Z,5.80
2022-07-28T23:52:31.636Z,5.53
2022-07-28T23:54:58.515Z,5.22
2022-07-28T23:57:25.133Z,5.97
2022-07-28T23:59:58.102Z,5.72
